sensor_id;sensor_type;location;lat;lon;timestamp;pressure;altitude;pressure_sealevel;temperature;humidity
38400;BME280;24180;42.676;23.320;2023-05-19T00:01:43;94926.66;;;11.63;100.00
38400;BME280;24180;42.676;23.320;2023-05-19T00:04:10;94901.47;;;11.46;100.00
38400;BME280;24180;42.676;23.320;2023-05-19T00:06:39;94940.69;;;11.61;100.00
38400;BME280;24180;42.676;23.320;2023-05-19T00:09:09;94911.78;;;11.56;100.00
38400;BME280;24180;42.676;23.320;2023-05-19T00:11:38;94928.13;;;11.66;100.00
38400;BME280;24180;42.676;23.320;2023-05-19T00:14:06;94901.19;;;11.49;100.00
38400;BME280;24180;42.676;23.320;2023-05-19T00:16:32;94930.31;;;11.61;100.00
38400;BME280;24180;42.676;23.320;2023-05-19T00:18:59;94929.75;;;11.67;100.00
38400;BME280;24180;42.676;23.320;2023-05-19T00:21:25;94925.53;;;11.66;100.00
38400;BME280;24180;42.676;23.320;2023-05-19T00:23:51;94920.72;;;11.71;100.00
38400;BME280;24180;42.676;23.320;2023-05-19T00:26:16;94909.56;;;11.61;100.00
38400;BME280;24180;42.676;23.320;2023-05-19T00:28:42;94913.13;;;11.60;100.00
38400;BME280;24180;42.676;23.320;2023-05-19T00:31:07;94909.06;;;11.57;100.00
38400;BME280;24180;42.676;23.320;2023-05-19T00:33:33;94882.81;;;11.43;100.00
38400;BME280;24180;42.676;23.320;2023-05-19T00:36:02;94880.97;;;11.53;100.00
38400;BME280;24180;42.676;23.320;2023-05-19T00:38:32;94896.78;;;11.59;100.00
38400;BME280;24180;42.676;23.320;2023-05-19T00:40:59;94893.88;;;11.62;100.00
38400;BME280;24180;42.676;23.320;2023-05-19T00:43:25;94919.09;;;11.70;100.00
38400;BME280;24180;42.676;23.320;2023-05-19T00:45:51;94915.16;;;11.66;100.00
38400;BME280;24180;42.676;23.320;2023-05-19T00:48:16;94881.31;;;11.40;100.00
38400;BME280;24180;42.676;23.320;2023-05-19T00:50:42;94892.59;;;11.49;100.00
38400;BME280;24180;42.676;23.320;2023-05-19T00:53:09;94895.59;;;11.44;100.00
38400;BME280;24180;42.676;23.320;2023-05-19T00:55:36;94870.84;;;11.32;100.00
38400;BME280;24180;42.676;23.320;2023-05-19T00:58:02;94870.09;;;11.22;100.00
38400;BME280;24180;42.676;23.320;2023-05-19T01:03:13;94827.03;;;10.84;100.00
38400;BME280;24180;42.676;23.320;2023-05-19T01:05:40;94902.16;;;11.21;100.00
38400;BME280;24180;42.676;23.320;2023-05-19T01:08:07;94890.88;;;11.12;100.00
38400;BME280;24180;42.676;23.320;2023-05-19T01:10:33;94875.81;;;10.98;100.00
38400;BME280;24180;42.676;23.320;2023-05-19T01:12:59;94901.13;;;11.04;100.00
38400;BME280;24180;42.676;23.320;2023-05-19T01:15:26;94904.13;;;11.00;100.00
38400;BME280;24180;42.676;23.320;2023-05-19T01:20:35;94913.41;;;11.02;100.00
38400;BME280;24180;42.676;23.320;2023-05-19T01:29:07;94900.91;;;10.88;100.00
38400;BME280;24180;42.676;23.320;2023-05-19T01:31:35;94900.91;;;10.88;100.00
38400;BME280;24180;42.676;23.320;2023-05-19T01:34:02;94900.38;;;10.85;100.00
38400;BME280;24180;42.676;23.320;2023-05-19T01:36:30;94872.66;;;10.58;100.00
38400;BME280;24180;42.676;23.320;2023-05-19T01:38:58;94897.16;;;10.73;100.00
38400;BME280;24180;42.676;23.320;2023-05-19T01:41:25;94900.97;;;10.69;100.00
38400;BME280;24180;42.676;23.320;2023-05-19T01:43:50;94908.09;;;10.67;100.00
38400;BME280;24180;42.676;23.320;2023-05-19T01:46:16;94890.22;;;10.64;100.00
38400;BME280;24180;42.676;23.320;2023-05-19T01:48:45;94903.44;;;10.61;100.00
38400;BME280;24180;42.676;23.320;2023-05-19T01:51:11;94858.84;;;10.30;100.00
38400;BME280;24180;42.676;23.320;2023-05-19T01:53:36;94860.72;;;10.28;100.00
38400;BME280;24180;42.676;23.320;2023-05-19T01:56:02;94879.25;;;10.43;100.00
38400;BME280;24180;42.676;23.320;2023-05-19T01:58:43;94867.13;;;10.33;100.00
38400;BME280;24180;42.676;23.320;2023-05-19T02:01:25;94903.47;;;10.51;100.00
38400;BME280;24180;42.676;23.320;2023-05-19T02:12:00;94897.78;;;10.38;100.00
38400;BME280;24180;42.676;23.320;2023-05-19T02:14:51;94894.09;;;10.41;100.00
38400;BME280;24180;42.676;23.320;2023-05-19T02:17:19;94905.66;;;10.46;100.00
38400;BME280;24180;42.676;23.320;2023-05-19T02:19:45;94918.19;;;10.51;100.00
38400;BME280;24180;42.676;23.320;2023-05-19T02:22:10;94912.19;;;10.50;100.00
38400;BME280;24180;42.676;23.320;2023-05-19T02:24:36;94885.78;;;10.37;100.00
38400;BME280;24180;42.676;23.320;2023-05-19T02:27:02;94876.91;;;10.40;100.00
38400;BME280;24180;42.676;23.320;2023-05-19T02:29:27;94910.09;;;10.63;100.00
38400;BME280;24180;42.676;23.320;2023-05-19T02:31:53;94905.38;;;10.49;100.00
38400;BME280;24180;42.676;23.320;2023-05-19T02:34:18;94902.91;;;10.48;100.00
38400;BME280;24180;42.676;23.320;2023-05-19T02:36:44;94912.19;;;10.50;100.00
38400;BME280;24180;42.676;23.320;2023-05-19T02:39:10;94910.03;;;10.46;100.00
38400;BME280;24180;42.676;23.320;2023-05-19T02:41:36;94909.34;;;10.44;100.00
38400;BME280;24180;42.676;23.320;2023-05-19T02:44:02;94917.09;;;10.44;100.00
38400;BME280;24180;42.676;23.320;2023-05-19T02:46:27;94917.66;;;10.38;100.00
38400;BME280;24180;42.676;23.320;2023-05-19T02:48:53;94914.13;;;10.39;100.00
38400;BME280;24180;42.676;23.320;2023-05-19T02:51:18;94905.00;;;10.25;100.00
38400;BME280;24180;42.676;23.320;2023-05-19T02:53:43;94888.53;;;10.16;100.00
38400;BME280;24180;42.676;23.320;2023-05-19T02:56:09;94910.84;;;10.37;100.00
38400;BME280;24180;42.676;23.320;2023-05-19T02:58:35;94923.13;;;10.35;100.00
38400;BME280;24180;42.676;23.320;2023-05-19T03:01:00;94926.78;;;10.42;100.00
38400;BME280;24180;42.676;23.320;2023-05-19T03:03:26;94918.75;;;10.45;100.00
38400;BME280;24180;42.676;23.320;2023-05-19T03:05:52;94915.22;;;10.46;100.00
38400;BME280;24180;42.676;23.320;2023-05-19T03:08:18;94900.50;;;10.37;100.00
38400;BME280;24180;42.676;23.320;2023-05-19T03:10:47;94904.84;;;10.36;100.00
38400;BME280;24180;42.676;23.320;2023-05-19T03:13:12;94931.94;;;10.51;100.00
38400;BME280;24180;42.676;23.320;2023-05-19T03:15:38;94917.78;;;10.46;100.00
38400;BME280;24180;42.676;23.320;2023-05-19T03:18:04;94939.72;;;10.51;100.00
38400;BME280;24180;42.676;23.320;2023-05-19T03:20:29;94895.88;;;10.30;100.00
38400;BME280;24180;42.676;23.320;2023-05-19T03:22:55;94893.00;;;10.33;100.00
38400;BME280;24180;42.676;23.320;2023-05-19T03:25:21;94930.16;;;10.52;100.00
38400;BME280;24180;42.676;23.320;2023-05-19T03:27:46;94906.50;;;10.37;100.00
38400;BME280;24180;42.676;23.320;2023-05-19T03:30:12;94909.22;;;10.36;100.00
38400;BME280;24180;42.676;23.320;2023-05-19T03:32:38;94893.69;;;10.36;100.00
38400;BME280;24180;42.676;23.320;2023-05-19T03:35:04;94894.66;;;10.35;100.00
38400;BME280;24180;42.676;23.320;2023-05-19T03:37:30;94905.66;;;10.37;100.00
38400;BME280;24180;42.676;23.320;2023-05-19T03:39:57;94905.38;;;10.40;100.00
38400;BME280;24180;42.676;23.320;2023-05-19T03:42:23;94914.63;;;10.52;100.00
38400;BME280;24180;42.676;23.320;2023-05-19T03:44:48;94898.31;;;10.42;100.00
38400;BME280;24180;42.676;23.320;2023-05-19T03:47:13;94937.25;;;10.59;100.00
38400;BME280;24180;42.676;23.320;2023-05-19T03:49:39;94922.41;;;10.61;100.00
38400;BME280;24180;42.676;23.320;2023-05-19T03:52:04;94934.63;;;10.69;100.00
38400;BME280;24180;42.676;23.320;2023-05-19T03:54:30;94944.06;;;10.70;100.00
38400;BME280;24180;42.676;23.320;2023-05-19T03:56:55;94933.94;;;10.76;100.00
38400;BME280;24180;42.676;23.320;2023-05-19T03:59:21;94933.94;;;10.86;100.00
38400;BME280;24180;42.676;23.320;2023-05-19T04:01:48;94921.25;;;10.83;100.00
38400;BME280;24180;42.676;23.320;2023-05-19T04:04:13;94938.28;;;10.95;100.00
38400;BME280;24180;42.676;23.320;2023-05-19T04:06:39;94958.13;;;11.14;100.00
38400;BME280;24180;42.676;23.320;2023-05-19T04:09:10;94929.50;;;10.96;100.00
38400;BME280;24180;42.676;23.320;2023-05-19T04:11:37;94932.75;;;11.08;100.00
38400;BME280;24180;42.676;23.320;2023-05-19T04:14:04;94900.69;;;11.09;100.00
38400;BME280;24180;42.676;23.320;2023-05-19T04:16:29;94957.22;;;11.60;100.00
38400;BME280;24180;42.676;23.320;2023-05-19T04:18:55;94967.59;;;11.60;100.00
38400;BME280;24180;42.676;23.320;2023-05-19T04:21:21;94930.91;;;11.55;100.00
38400;BME280;24180;42.676;23.320;2023-05-19T04:23:46;94964.13;;;11.79;100.00
38400;BME280;24180;42.676;23.320;2023-05-19T04:26:12;94949.69;;;11.66;100.00
38400;BME280;24180;42.676;23.320;2023-05-19T04:28:39;94965.72;;;11.80;100.00
38400;BME280;24180;42.676;23.320;2023-05-19T04:31:06;94941.47;;;11.71;100.00
38400;BME280;24180;42.676;23.320;2023-05-19T04:33:35;94944.75;;;11.73;100.00
38400;BME280;24180;42.676;23.320;2023-05-19T04:36:01;94970.91;;;11.80;100.00
38400;BME280;24180;42.676;23.320;2023-05-19T04:38:30;94945.97;;;11.69;100.00
38400;BME280;24180;42.676;23.320;2023-05-19T04:40:55;94981.47;;;11.96;100.00
38400;BME280;24180;42.676;23.320;2023-05-19T04:43:21;94989.44;;;11.94;100.00
38400;BME280;24180;42.676;23.320;2023-05-19T04:45:47;94954.06;;;11.66;100.00
38400;BME280;24180;42.676;23.320;2023-05-19T04:48:14;94951.84;;;11.71;100.00
38400;BME280;24180;42.676;23.320;2023-05-19T04:50:39;94982.50;;;11.85;100.00
38400;BME280;24180;42.676;23.320;2023-05-19T04:53:10;94984.19;;;11.77;100.00
38400;BME280;24180;42.676;23.320;2023-05-19T04:55:36;94956.47;;;11.50;100.00
38400;BME280;24180;42.676;23.320;2023-05-19T04:58:02;94991.19;;;11.66;100.00
38400;BME280;24180;42.676;23.320;2023-05-19T05:00:28;94978.88;;;11.68;100.00
38400;BME280;24180;42.676;23.320;2023-05-19T05:02:53;94980.81;;;11.66;100.00
38400;BME280;24180;42.676;23.320;2023-05-19T05:05:21;94975.59;;;11.76;100.00
38400;BME280;24180;42.676;23.320;2023-05-19T05:07:47;94906.88;;;11.53;100.00
38400;BME280;24180;42.676;23.320;2023-05-19T05:10:13;94959.38;;;11.92;100.00
38400;BME280;24180;42.676;23.320;2023-05-19T05:12:39;94957.97;;;11.97;100.00
38400;BME280;24180;42.676;23.320;2023-05-19T05:15:05;94988.47;;;12.13;100.00
38400;BME280;24180;42.676;23.320;2023-05-19T05:17:32;94987.97;;;12.09;100.00
38400;BME280;24180;42.676;23.320;2023-05-19T05:19:59;94976.66;;;12.01;100.00
38400;BME280;24180;42.676;23.320;2023-05-19T05:22:25;94972.91;;;11.95;100.00
38400;BME280;24180;42.676;23.320;2023-05-19T05:24:51;94987.31;;;12.07;100.00
38400;BME280;24180;42.676;23.320;2023-05-19T05:27:16;94976.66;;;12.01;100.00
38400;BME280;24180;42.676;23.320;2023-05-19T05:29:42;94963.38;;;11.86;100.00
38400;BME280;24180;42.676;23.320;2023-05-19T05:32:07;94950.56;;;11.85;100.00
38400;BME280;24180;42.676;23.320;2023-05-19T05:34:33;94948.03;;;11.93;100.00
38400;BME280;24180;42.676;23.320;2023-05-19T05:37:00;94923.88;;;11.92;100.00
38400;BME280;24180;42.676;23.320;2023-05-19T05:39:25;94985.53;;;12.43;100.00
38400;BME280;24180;42.676;23.320;2023-05-19T05:41:52;94957.69;;;12.36;100.00
38400;BME280;24180;42.676;23.320;2023-05-19T05:44:17;94983.72;;;12.61;100.00
38400;BME280;24180;42.676;23.320;2023-05-19T05:46:43;94983.13;;;12.68;100.00
38400;BME280;24180;42.676;23.320;2023-05-19T05:49:08;94958.63;;;12.52;100.00
38400;BME280;24180;42.676;23.320;2023-05-19T05:51:34;94988.97;;;12.87;100.00
38400;BME280;24180;42.676;23.320;2023-05-19T05:54:00;94972.56;;;12.87;100.00
38400;BME280;24180;42.676;23.320;2023-05-19T05:56:27;94969.72;;;12.80;100.00
38400;BME280;24180;42.676;23.320;2023-05-19T05:58:52;95005.56;;;13.12;100.00
38400;BME280;24180;42.676;23.320;2023-05-19T06:01:18;95001.72;;;13.24;100.00
38400;BME280;24180;42.676;23.320;2023-05-19T06:03:45;95001.13;;;13.30;100.00
38400;BME280;24180;42.676;23.320;2023-05-19T06:06:10;94988.09;;;13.22;100.00
38400;BME280;24180;42.676;23.320;2023-05-19T06:08:36;95025.97;;;13.50;100.00
38400;BME280;24180;42.676;23.320;2023-05-19T06:11:02;94996.47;;;13.42;100.00
38400;BME280;24180;42.676;23.320;2023-05-19T06:13:34;95003.06;;;13.54;100.00
38400;BME280;24180;42.676;23.320;2023-05-19T06:15:59;95026.47;;;13.88;100.00
38400;BME280;24180;42.676;23.320;2023-05-19T06:18:25;95019.19;;;13.99;100.00
38400;BME280;24180;42.676;23.320;2023-05-19T06:20:50;95013.84;;;14.09;100.00
38400;BME280;24180;42.676;23.320;2023-05-19T06:23:16;95006.38;;;14.14;100.00
38400;BME280;24180;42.676;23.320;2023-05-19T06:25:41;95040.19;;;14.48;100.00
38400;BME280;24180;42.676;23.320;2023-05-19T06:28:07;95033.84;;;14.50;100.00
38400;BME280;24180;42.676;23.320;2023-05-19T06:30:32;95010.38;;;14.59;100.00
38400;BME280;24180;42.676;23.320;2023-05-19T06:32:57;95026.84;;;14.59;100.00
38400;BME280;24180;42.676;23.320;2023-05-19T06:35:23;95014.44;;;14.53;100.00
38400;BME280;24180;42.676;23.320;2023-05-19T06:37:48;95027.00;;;14.74;100.00
38400;BME280;24180;42.676;23.320;2023-05-19T06:40:14;95036.81;;;14.88;100.00
38400;BME280;24180;42.676;23.320;2023-05-19T06:42:39;95039.09;;;14.83;100.00
38400;BME280;24180;42.676;23.320;2023-05-19T06:45:05;95046.41;;;14.87;100.00
38400;BME280;24180;42.676;23.320;2023-05-19T06:47:31;95038.41;;;15.05;100.00
38400;BME280;24180;42.676;23.320;2023-05-19T06:49:56;95007.59;;;15.09;100.00
38400;BME280;24180;42.676;23.320;2023-05-19T06:52:22;95048.00;;;15.45;100.00
38400;BME280;24180;42.676;23.320;2023-05-19T06:54:48;95017.38;;;15.31;100.00
38400;BME280;24180;42.676;23.320;2023-05-19T06:57:13;95045.38;;;15.45;100.00
38400;BME280;24180;42.676;23.320;2023-05-19T06:59:39;95056.16;;;15.58;100.00
38400;BME280;24180;42.676;23.320;2023-05-19T07:02:08;95051.28;;;15.63;100.00
38400;BME280;24180;42.676;23.320;2023-05-19T07:04:34;95008.03;;;15.61;100.00
38400;BME280;24180;42.676;23.320;2023-05-19T07:07:00;95059.59;;;16.06;100.00
38400;BME280;24180;42.676;23.320;2023-05-19T07:09:25;95048.91;;;15.93;100.00
38400;BME280;24180;42.676;23.320;2023-05-19T07:11:51;95057.50;;;16.01;100.00
38400;BME280;24180;42.676;23.320;2023-05-19T07:14:16;95064.69;;;16.07;100.00
38400;BME280;24180;42.676;23.320;2023-05-19T07:16:42;95065.72;;;16.29;100.00
38400;BME280;24180;42.676;23.320;2023-05-19T07:19:07;95029.03;;;16.45;100.00
38400;BME280;24180;42.676;23.320;2023-05-19T07:21:33;95062.22;;;16.75;100.00
38400;BME280;24180;42.676;23.320;2023-05-19T07:23:58;95040.38;;;16.68;100.00
38400;BME280;24180;42.676;23.320;2023-05-19T07:26:24;95058.47;;;17.01;100.00
38400;BME280;24180;42.676;23.320;2023-05-19T07:28:50;95068.03;;;17.08;100.00
38400;BME280;24180;42.676;23.320;2023-05-19T07:31:16;95069.53;;;17.03;100.00
38400;BME280;24180;42.676;23.320;2023-05-19T07:33:41;95050.53;;;17.09;100.00
38400;BME280;24180;42.676;23.320;2023-05-19T07:36:06;95054.69;;;17.41;100.00
38400;BME280;24180;42.676;23.320;2023-05-19T07:38:33;95061.53;;;17.64;100.00
38400;BME280;24180;42.676;23.320;2023-05-19T07:41:00;95052.72;;;17.57;100.00
38400;BME280;24180;42.676;23.320;2023-05-19T07:43:26;95036.84;;;17.21;100.00
38400;BME280;24180;42.676;23.320;2023-05-19T07:45:51;95058.06;;;17.26;100.00
38400;BME280;24180;42.676;23.320;2023-05-19T07:48:18;95053.06;;;17.40;100.00
38400;BME280;24180;42.676;23.320;2023-05-19T07:50:47;95039.56;;;17.65;100.00
38400;BME280;24180;42.676;23.320;2023-05-19T07:53:13;95057.09;;;17.80;100.00
38400;BME280;24180;42.676;23.320;2023-05-19T07:55:38;95061.59;;;17.71;100.00
38400;BME280;24180;42.676;23.320;2023-05-19T07:58:04;95041.56;;;17.63;100.00
38400;BME280;24180;42.676;23.320;2023-05-19T08:00:29;95050.97;;;17.72;100.00
38400;BME280;24180;42.676;23.320;2023-05-19T08:02:55;95056.38;;;17.86;100.00
38400;BME280;24180;42.676;23.320;2023-05-19T08:05:21;95054.94;;;17.83;100.00
38400;BME280;24180;42.676;23.320;2023-05-19T08:07:47;95035.06;;;17.59;100.00
38400;BME280;24180;42.676;23.320;2023-05-19T08:10:12;95025.66;;;17.80;100.00
38400;BME280;24180;42.676;23.320;2023-05-19T08:12:38;95057.09;;;18.09;100.00
38400;BME280;24180;42.676;23.320;2023-05-19T08:15:03;95033.78;;;18.14;100.00
38400;BME280;24180;42.676;23.320;2023-05-19T08:17:29;95058.69;;;18.39;100.00
38400;BME280;24180;42.676;23.320;2023-05-19T08:19:54;95040.56;;;18.08;100.00
38400;BME280;24180;42.676;23.320;2023-05-19T08:22:20;95044.22;;;18.43;100.00
38400;BME280;24180;42.676;23.320;2023-05-19T08:24:45;95067.63;;;18.59;100.00
38400;BME280;24180;42.676;23.320;2023-05-19T08:27:14;95025.31;;;18.48;100.00
38400;BME280;24180;42.676;23.320;2023-05-19T08:29:39;95060.72;;;19.15;100.00
38400;BME280;24180;42.676;23.320;2023-05-19T08:32:05;95036.28;;;19.36;100.00
38400;BME280;24180;42.676;23.320;2023-05-19T08:34:30;95025.59;;;19.38;100.00
38400;BME280;24180;42.676;23.320;2023-05-19T08:36:56;95054.31;;;19.67;100.00
38400;BME280;24180;42.676;23.320;2023-05-19T08:39:22;95044.06;;;19.51;100.00
38400;BME280;24180;42.676;23.320;2023-05-19T08:41:52;95041.94;;;19.40;100.00
38400;BME280;24180;42.676;23.320;2023-05-19T08:44:18;95040.84;;;19.28;100.00
38400;BME280;24180;42.676;23.320;2023-05-19T08:46:43;95020.34;;;19.16;100.00
38400;BME280;24180;42.676;23.320;2023-05-19T08:49:12;95051.53;;;19.47;100.00
38400;BME280;24180;42.676;23.320;2023-05-19T08:54:13;95016.50;;;19.40;100.00
38400;BME280;24180;42.676;23.320;2023-05-19T08:56:42;95046.63;;;19.66;100.00
38400;BME280;24180;42.676;23.320;2023-05-19T08:59:08;95049.28;;;19.44;100.00
38400;BME280;24180;42.676;23.320;2023-05-19T09:01:34;95019.78;;;19.21;100.00
38400;BME280;24180;42.676;23.320;2023-05-19T09:04:01;95042.91;;;19.53;100.00
38400;BME280;24180;42.676;23.320;2023-05-19T09:06:27;95019.63;;;19.50;100.00
38400;BME280;24180;42.676;23.320;2023-05-19T09:08:56;94987.28;;;19.50;100.00
38400;BME280;24180;42.676;23.320;2023-05-19T09:11:22;95036.69;;;19.95;100.00
38400;BME280;24180;42.676;23.320;2023-05-19T09:13:47;95025.19;;;19.96;100.00
38400;BME280;24180;42.676;23.320;2023-05-19T09:16:14;95019.66;;;19.85;100.00
38400;BME280;24180;42.676;23.320;2023-05-19T09:18:39;95008.50;;;19.83;100.00
38400;BME280;24180;42.676;23.320;2023-05-19T09:21:17;95009.38;;;19.90;100.00
38400;BME280;24180;42.676;23.320;2023-05-19T09:23:45;95002.72;;;19.94;100.00
38400;BME280;24180;42.676;23.320;2023-05-19T09:26:14;95011.88;;;20.11;100.00
38400;BME280;24180;42.676;23.320;2023-05-19T09:28:39;94999.44;;;19.85;100.00
38400;BME280;24180;42.676;23.320;2023-05-19T09:31:07;95010.88;;;20.12;100.00
38400;BME280;24180;42.676;23.320;2023-05-19T09:33:36;95014.59;;;20.24;100.00
38400;BME280;24180;42.676;23.320;2023-05-19T09:36:03;95015.91;;;20.54;100.00
38400;BME280;24180;42.676;23.320;2023-05-19T09:38:33;94981.72;;;20.48;100.00
38400;BME280;24180;42.676;23.320;2023-05-19T09:41:00;95012.38;;;20.82;100.00
38400;BME280;24180;42.676;23.320;2023-05-19T09:43:30;94991.91;;;20.77;100.00
38400;BME280;24180;42.676;23.320;2023-05-19T09:46:08;94991.69;;;20.66;100.00
38400;BME280;24180;42.676;23.320;2023-05-19T09:48:34;95015.22;;;21.00;100.00
38400;BME280;24180;42.676;23.320;2023-05-19T09:51:01;95010.56;;;21.09;100.00
38400;BME280;24180;42.676;23.320;2023-05-19T09:53:28;94977.13;;;20.83;100.00
38400;BME280;24180;42.676;23.320;2023-05-19T09:55:55;95011.56;;;21.08;100.00
38400;BME280;24180;42.676;23.320;2023-05-19T09:58:24;95009.97;;;21.53;100.00
38400;BME280;24180;42.676;23.320;2023-05-19T10:00:51;94997.59;;;21.73;100.00
38400;BME280;24180;42.676;23.320;2023-05-19T10:03:20;95004.50;;;21.47;99.57
38400;BME280;24180;42.676;23.320;2023-05-19T10:05:47;94972.09;;;21.40;100.00
38400;BME280;24180;42.676;23.320;2023-05-19T10:08:15;94977.28;;;21.80;100.00
38400;BME280;24180;42.676;23.320;2023-05-19T10:10:44;94997.06;;;22.73;98.83
38400;BME280;24180;42.676;23.320;2023-05-19T10:13:11;95001.84;;;23.88;87.23
38400;BME280;24180;42.676;23.320;2023-05-19T10:15:36;94996.13;;;25.93;73.79
38400;BME280;24180;42.676;23.320;2023-05-19T10:18:02;94997.75;;;25.94;67.92
38400;BME280;24180;42.676;23.320;2023-05-19T10:20:28;94988.16;;;25.93;64.90
38400;BME280;24180;42.676;23.320;2023-05-19T10:22:55;94991.31;;;27.77;55.06
38400;BME280;24180;42.676;23.320;2023-05-19T10:25:20;94990.91;;;29.15;48.60
38400;BME280;24180;42.676;23.320;2023-05-19T10:27:55;94967.34;;;30.08;44.72
38400;BME280;24180;42.676;23.320;2023-05-19T10:30:28;94975.94;;;30.77;43.67
38400;BME280;24180;42.676;23.320;2023-05-19T10:32:55;94959.16;;;30.35;40.22
38400;BME280;24180;42.676;23.320;2023-05-19T10:35:53;94982.38;;;27.66;49.01
38400;BME280;24180;42.676;23.320;2023-05-19T10:38:39;94987.16;;;28.90;44.98
38400;BME280;24180;42.676;23.320;2023-05-19T10:41:23;94962.66;;;31.13;37.43
38400;BME280;24180;42.676;23.320;2023-05-19T10:46:53;94958.34;;;34.36;32.42
38400;BME280;24180;42.676;23.320;2023-05-19T10:49:20;94955.72;;;35.35;30.33
38400;BME280;24180;42.676;23.320;2023-05-19T10:51:46;94953.25;;;36.57;29.03
38400;BME280;24180;42.676;23.320;2023-05-19T10:54:11;94968.34;;;35.85;27.27
38400;BME280;24180;42.676;23.320;2023-05-19T10:56:42;94972.34;;;35.88;26.96
38400;BME280;24180;42.676;23.320;2023-05-19T10:59:29;94957.44;;;36.64;24.94
38400;BME280;24180;42.676;23.320;2023-05-19T11:01:56;94943.69;;;34.00;28.47
38400;BME280;24180;42.676;23.320;2023-05-19T11:04:47;94934.81;;;31.34;33.23
38400;BME280;24180;42.676;23.320;2023-05-19T11:07:21;94968.66;;;30.67;36.10
38400;BME280;24180;42.676;23.320;2023-05-19T11:09:50;94941.94;;;33.22;33.02
38400;BME280;24180;42.676;23.320;2023-05-19T11:12:20;94961.13;;;32.46;33.09
38400;BME280;24180;42.676;23.320;2023-05-19T11:14:47;94955.31;;;30.78;36.04
38400;BME280;24180;42.676;23.320;2023-05-19T11:17:15;94959.44;;;33.54;31.24
38400;BME280;24180;42.676;23.320;2023-05-19T11:19:52;94946.75;;;36.45;27.54
38400;BME280;24180;42.676;23.320;2023-05-19T11:22:22;94961.38;;;38.58;25.03
38400;BME280;24180;42.676;23.320;2023-05-19T11:24:48;94944.22;;;37.47;25.95
38400;BME280;24180;42.676;23.320;2023-05-19T11:27:28;94967.28;;;34.31;29.39
38400;BME280;24180;42.676;23.320;2023-05-19T11:29:58;94965.06;;;31.39;31.92
38400;BME280;24180;42.676;23.320;2023-05-19T11:32:29;94926.91;;;29.15;36.22
38400;BME280;24180;42.676;23.320;2023-05-19T11:34:55;94929.09;;;28.00;40.00
38400;BME280;24180;42.676;23.320;2023-05-19T11:37:21;94946.34;;;27.42;42.21
38400;BME280;24180;42.676;23.320;2023-05-19T11:39:47;94947.88;;;26.76;45.62
38400;BME280;24180;42.676;23.320;2023-05-19T11:42:12;94961.78;;;26.38;48.66
38400;BME280;24180;42.676;23.320;2023-05-19T11:44:38;94951.94;;;25.64;53.43
38400;BME280;24180;42.676;23.320;2023-05-19T11:47:05;94934.97;;;24.95;59.67
38400;BME280;24180;42.676;23.320;2023-05-19T11:49:31;94951.22;;;24.39;70.10
38400;BME280;24180;42.676;23.320;2023-05-19T11:51:59;94944.31;;;23.41;82.53
38400;BME280;24180;42.676;23.320;2023-05-19T11:54:32;94974.97;;;21.26;100.00
38400;BME280;24180;42.676;23.320;2023-05-19T11:57:00;94999.03;;;19.82;100.00
38400;BME280;24180;42.676;23.320;2023-05-19T11:59:34;94996.31;;;19.13;100.00
38400;BME280;24180;42.676;23.320;2023-05-19T12:02:21;95006.09;;;18.62;100.00
38400;BME280;24180;42.676;23.320;2023-05-19T12:04:47;95007.88;;;18.40;100.00
38400;BME280;24180;42.676;23.320;2023-05-19T12:07:17;95001.13;;;18.31;100.00
38400;BME280;24180;42.676;23.320;2023-05-19T12:09:44;94999.38;;;18.38;100.00
38400;BME280;24180;42.676;23.320;2023-05-19T12:12:15;94992.97;;;18.26;100.00
38400;BME280;24180;42.676;23.320;2023-05-19T12:14:41;95047.31;;;18.32;100.00
38400;BME280;24180;42.676;23.320;2023-05-19T12:17:11;95039.84;;;18.50;100.00
38400;BME280;24180;42.676;23.320;2023-05-19T12:19:37;95056.34;;;18.44;100.00
38400;BME280;24180;42.676;23.320;2023-05-19T12:22:05;95015.06;;;18.02;100.00
38400;BME280;24180;42.676;23.320;2023-05-19T12:24:32;95030.69;;;17.37;100.00
38400;BME280;24180;42.676;23.320;2023-05-19T12:29:31;95042.44;;;17.18;100.00
38400;BME280;24180;42.676;23.320;2023-05-19T12:31:57;95020.81;;;17.02;100.00
38400;BME280;24180;42.676;23.320;2023-05-19T12:34:23;95023.97;;;16.74;100.00
38400;BME280;24180;42.676;23.320;2023-05-19T12:36:48;95040.47;;;16.98;100.00
38400;BME280;24180;42.676;23.320;2023-05-19T12:39:14;95040.47;;;17.20;100.00
38400;BME280;24180;42.676;23.320;2023-05-19T12:41:39;95038.94;;;17.63;100.00
38400;BME280;24180;42.676;23.320;2023-05-19T12:44:14;94974.00;;;17.59;100.00
38400;BME280;24180;42.676;23.320;2023-05-19T12:46:40;95021.81;;;18.26;100.00
38400;BME280;24180;42.676;23.320;2023-05-19T12:49:05;94982.84;;;18.74;100.00
38400;BME280;24180;42.676;23.320;2023-05-19T12:51:31;94981.13;;;19.64;100.00
38400;BME280;24180;42.676;23.320;2023-05-19T12:53:56;94992.53;;;19.78;100.00
38400;BME280;24180;42.676;23.320;2023-05-19T12:56:24;94994.22;;;19.92;100.00
38400;BME280;24180;42.676;23.320;2023-05-19T12:58:54;94991.44;;;20.06;100.00
38400;BME280;24180;42.676;23.320;2023-05-19T13:01:21;94953.44;;;20.09;100.00
38400;BME280;24180;42.676;23.320;2023-05-19T13:03:46;94958.03;;;20.54;100.00
38400;BME280;24180;42.676;23.320;2023-05-19T13:06:12;94952.63;;;20.69;100.00
38400;BME280;24180;42.676;23.320;2023-05-19T13:08:37;94974.69;;;20.68;100.00